Time;durP1;ratioP1;P1;durP2;ratioP2;P2;SDS_P1;SDS_P2;PMS_P1;PMS_P2;Temp;Humidity;BMP_temperature;BMP_pressure;BME280_temperature;BME280_humidity;BME280_pressure;Samples;Min_cycle;Max_cycle;Signal;HPM_P1;HPM_P2
2022/07/01 00:02:22;;;;;;;18.73;16.77;;;17.90;99.90;;;18.20;80.33;101305.25;5113675;28;20124;-61
2022/07/01 00:04:51;;;;;;;20.58;17.77;;;17.80;99.90;;;18.18;80.96;101331.22;5113005;28;20104;-61
2022/07/01 00:07:38;;;;;;;20.33;17.27;;;17.70;99.90;;;18.09;81.50;101334.16;5113501;28;20177;-61
2022/07/01 00:10:10;;;;;;;23.90;18.23;;;17.60;99.90;;;18.05;81.68;101327.13;5113342;28;20040;-61
2022/07/01 00:12:38;;;;;;;22.08;18.38;;;17.60;99.90;;;18.06;82.28;101328.84;5113098;28;20048;-61
2022/07/01 00:15:09;;;;;;;21.70;18.48;;;17.60;99.90;;;17.96;82.25;101322.88;5112822;28;20046;-62
2022/07/01 00:17:37;;;;;;;21.65;19.00;;;17.50;99.90;;;18.02;82.34;101329.91;5113122;28;20039;-61
2022/07/01 00:20:07;;;;;;;22.13;19.73;;;17.50;99.90;;;18.08;82.24;101336.88;5112784;28;20069;-61
2022/07/01 00:22:36;;;;;;;21.77;19.20;;;17.60;99.90;;;18.07;82.30;101335.09;5112935;28;20093;-62
2022/07/01 00:25:06;;;;;;;23.98;19.30;;;17.60;99.90;;;18.00;82.18;101335.28;5112490;28;20052;-61
2022/07/01 00:27:38;;;;;;;23.10;18.85;;;17.50;99.90;;;17.96;82.20;101332.75;5112492;28;20485;-61
2022/07/01 00:30:09;;;;;;;22.35;18.55;;;17.50;99.90;;;17.95;82.31;101326.50;5112836;28;20048;-61
2022/07/01 00:32:37;;;;;;;23.92;18.00;;;17.50;99.90;;;17.92;82.35;101337.28;5112845;28;20043;-61
2022/07/01 00:35:09;;;;;;;25.40;18.38;;;17.50;99.90;;;17.89;82.44;101340.03;5112331;28;20460;-62
2022/07/01 00:37:40;;;;;;;24.33;18.20;;;17.40;99.90;;;17.86;82.69;101345.50;5112413;28;20047;-61
2022/07/01 00:40:09;;;;;;;22.15;17.90;;;17.40;99.90;;;17.85;83.01;101345.50;5112462;28;20040;-61
2022/07/01 00:42:43;;;;;;;21.15;16.85;;;17.40;99.90;;;17.84;83.26;101343.78;5112385;28;20051;-62
2022/07/01 00:45:14;;;;;;;23.08;16.42;;;17.40;99.90;;;17.79;83.47;101340.31;5111486;28;20049;-61
2022/07/01 00:47:44;;;;;;;23.17;16.50;;;17.30;99.90;;;17.77;83.55;101337.69;5112435;28;20486;-61
2022/07/01 00:50:15;;;;;;;22.80;15.57;;;17.30;99.90;;;17.62;83.61;101297.97;5112206;28;20047;-61
2022/07/01 00:52:44;;;;;;;;;;;17.30;99.90;;;17.78;83.57;101317.16;5112557;28;20048;-61
2022/07/01 00:55:15;;;;;;;20.92;15.75;;;17.30;99.90;;;17.79;83.47;101321.59;5112583;28;19959;-62
2022/07/01 00:57:45;;;;;;;19.30;15.90;;;17.30;99.90;;;17.71;83.51;101304.88;5112428;28;20031;-60
2022/07/01 01:00:16;;;;;;;21.85;14.35;;;17.30;99.90;;;17.75;83.21;101318.13;5093804;28;20158;-61
2022/07/01 01:02:44;;;;;;;19.92;14.88;;;17.40;99.90;;;17.82;82.97;101330.44;5111892;28;20044;-61
2022/07/01 01:05:13;;;;;;;25.33;14.02;;;17.40;99.90;;;17.79;82.70;101314.44;5111648;28;20142;-61
2022/07/01 01:07:42;;;;;;;23.67;14.02;;;17.40;99.90;;;17.82;82.64;101316.16;5111656;28;20118;-61
2022/07/01 01:10:12;;;;;;;19.40;14.65;;;17.30;99.90;;;17.81;82.64;101320.63;5111719;28;20067;-61
2022/07/01 01:12:41;;;;;;;18.65;14.18;;;17.40;99.90;;;17.81;82.29;101322.41;5111639;28;20074;-61
2022/07/01 01:15:18;;;;;;;15.45;12.95;;;17.40;99.90;;;17.81;82.10;101319.75;5112011;28;20365;-61
2022/07/01 01:17:47;;;;;;;14.70;11.73;;;17.40;99.90;;;17.84;81.98;101317.88;5112071;28;20426;-61
2022/07/01 01:20:17;;;;;;;14.15;11.10;;;17.40;99.90;;;17.78;81.87;101334.09;5112048;28;20046;-61
2022/07/01 01:22:48;;;;;;;19.20;12.25;;;17.40;99.90;;;17.78;81.75;101331.44;5112137;28;20069;-61
2022/07/01 01:25:16;;;;;;;14.55;10.95;;;17.30;99.90;;;17.78;81.75;101338.56;5111700;28;20105;-61
2022/07/01 01:27:45;;;;;;;14.85;11.60;;;17.30;99.90;;;17.77;81.74;101340.38;5112027;28;20069;-61
2022/07/01 01:30:14;;;;;;;16.63;11.10;;;17.30;99.90;;;17.71;81.91;101339.66;5111951;28;20124;-61
2022/07/01 01:32:43;;;;;;;17.25;11.60;;;17.20;99.90;;;17.73;82.08;101345.84;5112110;28;20046;-61
2022/07/01 01:35:13;;;;;;;16.02;11.00;;;17.30;99.90;;;17.73;82.25;101343.19;5111902;28;20044;-61
2022/07/01 01:37:41;;;;;;;20.90;11.00;;;17.20;99.90;;;17.67;82.41;101344.19;5112398;28;20054;-61
2022/07/01 01:40:13;;;;;;;13.38;10.85;;;17.30;99.90;;;17.74;82.48;101334.22;5111736;28;20039;-61
2022/07/01 01:42:42;;;;;;;13.52;9.75;;;17.30;99.90;;;17.81;82.50;101343.81;5111924;28;20054;-61
2022/07/01 01:45:11;;;;;;;13.35;9.98;;;17.40;99.90;;;17.79;82.64;101362.63;5111865;28;20372;-61
2022/07/01 01:47:40;;;;;;;20.63;11.18;;;17.30;99.90;;;17.86;82.72;101358.88;5111535;28;20101;-61
2022/07/01 01:50:10;;;;;;;13.80;10.60;;;17.40;99.90;;;17.88;82.73;101361.50;5111659;28;20365;-63
2022/07/01 01:52:42;;;;;;;13.82;10.45;;;17.40;99.90;;;17.84;82.86;101363.38;5111604;28;20093;-61
2022/07/01 01:55:13;;;;;;;14.43;9.80;;;17.40;99.90;;;17.86;82.84;101376.72;5112504;28;20134;-62
2022/07/01 01:57:41;;;;;;;;;;;17.40;99.90;;;17.19;82.63;101245.59;5115745;28;20043;-61
2022/07/01 02:00:11;;;;;;;15.93;9.13;;;17.40;99.90;;;17.80;82.32;101363.50;5115236;28;20034;-61
2022/07/01 02:02:40;;;;;;;13.30;9.13;;;17.40;99.90;;;17.68;82.18;101342.41;5115316;28;20039;-61
2022/07/01 02:05:13;;;;;;;15.60;8.90;;;17.40;99.90;;;17.75;81.85;101362.75;5115227;28;20509;-61
2022/07/01 02:07:41;;;;;;;15.02;9.85;;;17.30;99.90;;;17.81;81.67;101359.88;5115731;28;20039;-61
2022/07/01 02:10:11;;;;;;;16.10;8.93;;;17.30;99.90;;;17.85;81.38;101362.44;5114980;28;20036;-61
2022/07/01 02:12:40;;;;;;;14.00;8.60;;;17.40;99.90;;;17.81;81.10;101359.88;5115112;28;20558;-61
2022/07/01 02:15:09;;;;;;;11.57;8.98;;;17.40;99.90;;;17.92;80.74;101364.03;5115383;28;20384;-61
2022/07/01 02:17:37;;;;;;;11.50;8.52;;;17.40;99.90;;;17.91;80.71;101364.09;5096902;28;20048;-61
2022/07/01 02:20:07;;;;;;;17.33;9.25;;;17.40;99.90;;;17.89;80.59;101368.59;5115321;28;20407;-63
2022/07/01 02:22:36;;;;;;;12.95;8.63;;;17.40;99.90;;;17.86;80.42;101371.38;5115526;28;20445;-62
2022/07/01 02:25:05;;;;;;;12.52;8.90;;;17.40;99.90;;;17.82;80.48;101369.69;5116124;28;20040;-62
2022/07/01 02:27:37;;;;;;;13.23;8.73;;;17.40;99.90;;;17.83;80.27;101374.09;5116093;28;20119;-62
2022/07/01 02:30:08;;;;;;;15.30;8.85;;;17.30;99.90;;;17.80;80.24;101379.56;5115975;28;20048;-63
2022/07/01 02:32:36;;;;;;;10.85;8.05;;;17.30;99.90;;;17.51;80.30;101344.63;5115970;28;20068;-62
2022/07/01 02:35:05;;;;;;;11.73;8.38;;;17.20;99.90;;;17.71;80.22;101377.13;5116151;28;20126;-62
2022/07/01 02:37:33;;;;;;;12.35;7.63;;;17.30;99.90;;;17.69;80.17;101381.63;5115911;28;20067;-62
2022/07/01 02:40:02;;;;;;;10.85;8.38;;;17.20;99.90;;;17.68;80.13;101382.53;5116037;28;20070;-62
2022/07/01 02:42:34;;;;;;;11.90;7.82;;;17.20;99.90;;;17.66;79.85;101379.91;5097298;28;20140;-62
2022/07/01 02:45:07;;;;;;;13.07;8.65;;;17.20;99.90;;;17.52;79.81;101370.44;5115665;28;20141;-62
2022/07/01 02:47:37;;;;;;;12.63;8.40;;;17.10;99.90;;;17.53;79.99;101372.22;5115891;28;20052;-62
2022/07/01 02:50:08;;;;;;;15.80;8.63;;;17.10;99.90;;;17.48;79.86;101366.09;5115466;28;20047;-62
2022/07/01 02:52:38;;;;;;;14.40;8.40;;;17.10;99.90;;;17.48;79.82;101366.09;5116075;28;20035;-62
2022/07/01 02:55:09;;;;;;;12.50;8.65;;;17.10;99.90;;;17.55;79.91;101378.41;5115392;28;20099;-62
2022/07/01 02:57:40;;;;;;;12.90;8.27;;;17.10;99.90;;;17.55;79.89;101383.78;5115439;28;20039;-63
2022/07/01 03:00:13;;;;;;;13.82;9.10;;;17.10;99.90;;;17.50;80.05;101380.34;5115990;28;20460;-62
2022/07/01 03:02:41;;;;;;;12.45;8.35;;;17.10;99.90;;;17.50;80.02;101377.66;5115343;28;20143;-63
2022/07/01 03:05:11;;;;;;;13.18;8.20;;;17.00;99.90;;;17.36;80.00;101355.69;5115239;28;20122;-62
2022/07/01 03:07:41;;;;;;;16.63;9.30;;;17.10;99.90;;;17.34;79.91;101358.41;5114197;28;20497;-62
2022/07/01 03:10:11;;;;;;;15.27;9.00;;;17.00;99.90;;;17.40;80.05;101363.56;5115505;28;20044;-62
2022/07/01 03:12:40;;;;;;;15.93;8.65;;;17.00;99.90;;;17.40;80.18;101373.41;5115020;28;20489;-62
2022/07/01 03:15:12;;;;;;;12.25;9.10;;;17.00;99.90;;;17.38;80.34;101378.78;5115282;28;20097;-62
2022/07/01 03:17:42;;;;;;;14.70;9.82;;;17.00;99.90;;;17.35;80.10;101375.31;5115380;28;20570;-62
2022/07/01 03:20:13;;;;;;;18.98;9.30;;;16.90;99.90;;;17.26;80.35;101389.78;5115333;28;20048;-62
2022/07/01 03:22:45;;;;;;;15.77;9.07;;;16.90;99.90;;;17.10;80.65;101365.19;5115273;28;20044;-63
2022/07/01 03:25:14;;;;;;;14.80;9.63;;;16.80;99.90;;;17.03;80.93;101368.91;5115113;28;20047;-62
2022/07/01 03:27:45;;;;;;;15.50;9.55;;;16.70;99.90;;;17.16;81.13;101390.91;5115155;28;20117;-62
2022/07/01 03:30:17;;;;;;;15.63;9.00;;;16.70;99.90;;;17.17;81.02;101383.78;5115212;28;20035;-62
2022/07/01 03:32:46;;;;;;;14.48;9.20;;;16.70;99.90;;;17.19;81.12;101369.44;5114804;28;20047;-63
2022/07/01 03:38:00;;;;;;;17.90;9.85;;;16.70;99.90;;;17.21;81.41;101389.00;5114943;28;20085;-62
2022/07/01 03:40:29;;;;;;;17.48;10.23;;;16.70;99.90;;;17.14;81.68;101388.28;5114760;28;20403;-62
2022/07/01 03:42:57;;;;;;;11.48;9.38;;;16.70;99.90;;;17.19;81.83;101384.63;5114462;28;20101;-63
2022/07/01 03:45:27;;;;;;;17.13;10.52;;;16.70;99.90;;;17.22;81.63;101398.78;5114337;28;20035;-62
2022/07/01 03:47:55;;;;;;;14.75;9.70;;;16.80;99.90;;;17.23;81.73;101395.19;5114642;28;20556;-63
2022/07/01 03:50:25;;;;;;;14.10;9.07;;;16.80;99.90;;;17.08;81.92;101388.41;5114114;28;20449;-62
2022/07/01 03:55:37;;;;;;;15.77;9.65;;;16.70;99.90;;;17.13;82.33;101412.34;5113565;28;20101;-63
2022/07/01 03:58:06;;;;;;;22.35;10.38;;;16.70;99.90;;;17.04;82.78;101412.56;5114106;28;20063;-63
2022/07/01 04:00:38;;;;;;;16.73;9.65;;;16.70;99.90;;;16.97;83.64;101430.56;5114443;28;20071;-63
2022/07/01 04:03:07;;;;;;;15.80;9.50;;;16.60;99.90;;;16.85;83.59;101374.69;5114435;28;20482;-63
2022/07/01 04:05:38;;;;;;;17.40;9.98;;;16.60;99.90;;;17.08;83.93;101408.91;5114157;28;20050;-63
2022/07/01 04:08:10;;;;;;;17.25;9.57;;;16.60;99.90;;;17.15;83.94;101414.09;5114317;28;20044;-63
2022/07/01 04:10:41;;;;;;;17.00;8.82;;;16.70;99.90;;;17.16;83.92;101417.66;5095912;28;20047;-62
2022/07/01 04:13:10;;;;;;;19.63;9.43;;;16.70;99.90;;;17.18;83.84;101421.16;5114234;28;20047;-62
2022/07/01 04:16:01;;;;;;;19.58;10.60;;;16.70;99.90;;;17.11;83.99;101424.91;5114348;28;20058;-63
2022/07/01 04:18:30;;;;;;;15.80;9.95;;;16.70;99.90;;;17.09;84.24;101418.72;5113692;28;20040;-63
2022/07/01 04:23:45;;;;;;;14.57;9.73;;;16.70;99.90;;;16.92;84.48;101405.69;5114363;28;20044;-62
2022/07/01 04:26:14;;;;;;;20.13;10.45;;;16.70;99.90;;;17.10;84.52;101434.72;5114069;28;20132;-62
2022/07/01 04:29:02;;;;;;;16.50;10.02;;;16.70;99.90;;;17.17;84.30;101448.81;5113815;28;20069;-63
2022/07/01 04:31:32;;;;;;;17.30;10.05;;;16.80;99.90;;;17.12;84.28;101438.22;5113655;28;20049;-62
2022/07/01 04:34:01;;;;;;;20.15;9.50;;;16.70;99.90;;;17.14;84.25;101433.72;5114000;28;20040;-62
2022/07/01 04:36:29;;;;;;;16.83;9.50;;;16.70;99.90;;;17.18;84.10;101429.19;5113526;28;20032;-63
2022/07/01 04:38:58;;;;;;;21.05;10.00;;;16.70;99.90;;;16.29;83.91;101273.50;5113402;28;20039;-62
2022/07/01 04:44:12;;;;;;;18.17;9.30;;;16.80;99.90;;;17.27;83.77;101453.03;5113516;28;20501;-62
2022/07/01 04:46:42;;;;;;;18.25;8.50;;;16.80;99.90;;;17.24;83.63;101447.78;5113679;28;20059;-62
2022/07/01 04:49:11;;;;;;;16.42;8.27;;;16.80;99.90;;;17.27;83.77;101462.84;5113386;28;20126;-62
2022/07/01 04:51:39;;;;;;;19.10;9.13;;;16.90;99.90;;;17.23;83.79;101466.53;5113266;28;20119;-63
2022/07/01 04:54:09;;;;;;;14.23;7.75;;;16.80;99.90;;;17.25;84.03;101444.16;5113371;28;20465;-62
2022/07/01 04:56:38;;;;;;;16.33;8.77;;;16.80;99.90;;;17.29;83.84;101442.31;5113284;28;20130;-63
2022/07/01 04:59:12;;;;;;;18.70;8.70;;;16.90;99.90;;;17.27;83.75;101439.66;5113300;28;20309;-64
2022/07/01 05:01:43;;;;;;;17.08;8.73;;;16.90;99.90;;;17.35;83.68;101452.88;5113067;28;20554;-62
2022/07/01 05:04:12;;;;;;;18.75;8.13;;;16.90;99.90;;;17.14;83.72;101423.03;5113259;28;20040;-65
2022/07/01 05:06:41;;;;;;;19.45;8.15;;;16.90;99.90;;;17.37;83.86;101453.72;5113229;28;20035;-64
2022/07/01 05:09:09;;;;;;;13.98;8.07;;;16.90;99.90;;;17.27;83.98;101428.09;5113112;28;20094;-64
2022/07/01 05:11:38;;;;;;;20.35;8.90;;;17.00;99.90;;;17.38;84.09;101447.47;5113404;28;20047;-64
2022/07/01 05:14:07;;;;;;;23.73;9.00;;;17.00;99.90;;;17.43;84.38;101456.25;5113680;28;20055;-64
2022/07/01 05:16:36;;;;;;;18.15;7.60;;;17.00;99.90;;;17.40;84.56;101461.69;5113102;28;20138;-64
2022/07/01 05:21:58;;;;;;;16.52;7.68;;;17.00;99.90;;;17.31;85.44;101480.59;5113168;28;20069;-66
2022/07/01 05:24:30;;;;;;;14.98;7.78;;;16.90;99.90;;;17.39;85.72;101475.94;5113070;28;20131;-64
2022/07/01 05:27:00;;;;;;;17.52;8.10;;;17.00;99.90;;;17.42;85.74;101474.09;5113529;28;20079;-64
2022/07/01 05:29:30;;;;;;;20.48;8.27;;;17.10;99.90;;;16.79;85.71;101360.56;5112988;28;20481;-64
2022/07/01 05:31:58;;;;;;;18.23;8.32;;;17.00;99.90;;;17.55;85.99;101480.09;5116832;28;20481;-64
2022/07/01 05:34:29;;;;;;;14.70;8.70;;;17.10;99.90;;;17.46;86.01;101467.75;5116804;28;20587;-64
2022/07/01 05:36:58;;;;;;;16.85;8.52;;;17.20;99.90;;;17.67;86.02;101495.84;5116908;28;20067;-64
2022/07/01 05:39:27;;;;;;;16.80;8.57;;;17.30;99.90;;;17.62;85.75;101497.75;5116738;28;20077;-64
2022/07/01 05:41:55;;;;;;;15.15;8.18;;;17.20;99.90;;;17.59;85.02;101485.34;5116836;28;20614;-64
2022/07/01 05:44:24;;;;;;;18.33;8.30;;;17.20;99.90;;;17.60;85.07;101488.88;5116724;28;20126;-64
2022/07/01 05:46:52;;;;;;;20.35;8.50;;;17.20;99.90;;;17.52;85.09;101474.78;5116469;28;20085;-64
2022/07/01 05:49:20;;;;;;;15.15;7.78;;;17.20;99.90;;;17.54;84.94;101483.66;5116596;28;20093;-64
2022/07/01 05:51:50;;;;;;;20.10;7.85;;;17.20;99.90;;;17.49;84.92;101490.91;5116819;28;20046;-64
2022/07/01 05:54:18;;;;;;;15.57;7.57;;;17.10;99.90;;;17.44;84.71;101482.94;5116694;28;20047;-64
2022/07/01 05:56:47;;;;;;;17.15;7.53;;;17.10;99.90;;;17.47;85.01;101484.69;5117049;28;20045;-64
2022/07/01 05:59:15;;;;;;;20.60;8.45;;;17.10;99.90;;;17.53;84.83;101476.56;5116865;28;20043;-64
2022/07/01 06:01:45;;;;;;;16.92;8.15;;;17.10;99.90;;;17.53;84.86;101476.56;5116136;28;20035;-64
2022/07/01 06:04:14;;;;;;;13.95;7.70;;;17.10;99.90;;;17.46;85.44;101456.19;5116278;28;20100;-64
2022/07/01 06:06:42;;;;;;;18.55;8.68;;;17.20;99.90;;;17.62;85.78;101477.22;5116410;28;20456;-64
2022/07/01 06:09:12;;;;;;;19.60;8.55;;;17.20;99.90;;;17.75;86.06;101475.16;5116312;28;20071;-64
2022/07/01 06:11:40;;;;;;;22.57;9.77;;;17.30;99.90;;;17.77;85.77;101475.97;5116179;28;20404;-64
2022/07/01 06:14:09;;;;;;;17.33;9.50;;;17.40;99.90;;;17.69;85.69;101464.59;5116508;28;20089;-64
2022/07/01 06:16:37;;;;;;;20.23;9.93;;;17.40;99.90;;;17.93;85.89;101480.91;5116227;28;20086;-64
2022/07/01 06:19:07;;;;;;;23.27;10.43;;;17.50;99.90;;;18.02;85.37;101480.69;5116129;28;20039;-64
2022/07/01 06:21:35;;;;;;;21.70;11.20;;;17.70;99.90;;;18.16;85.54;101488.38;5115970;28;20123;-64
2022/07/01 06:24:04;;;;;;;19.92;10.68;;;17.80;99.90;;;18.20;84.27;101495.41;5116045;28;20088;-64
2022/07/01 06:26:34;;;;;;;22.90;9.25;;;17.80;99.90;;;18.20;83.50;101491.84;5115742;28;20409;-64
2022/07/01 06:29:02;;;;;;;17.88;7.95;;;17.90;99.90;;;18.25;83.15;101489.94;5116167;28;20423;-64
2022/07/01 06:31:33;;;;;;;24.58;7.55;;;17.90;99.90;;;17.95;82.08;101451.44;5115997;28;20085;-65
2022/07/01 06:34:01;;;;;;;;;;;17.90;99.90;;;18.13;81.05;101490.25;5098413;28;20052;-64
2022/07/01 06:36:29;;;;;;;19.02;6.85;;;17.80;99.90;;;18.12;81.74;101501.91;5116045;28;19919;-67
2022/07/01 06:38:58;;;;;;;15.50;6.32;;;17.70;99.90;;;18.12;81.47;101494.72;5116036;28;20044;-67
2022/07/01 06:41:29;;;;;;;17.42;6.30;;;17.70;99.90;;;18.02;81.27;101490.53;5114646;28;20074;-66
2022/07/01 06:44:01;;;;;;;19.15;6.72;;;17.70;99.90;;;17.95;81.51;101484.44;5115547;28;20088;-66
2022/07/01 06:46:30;;;;;;;15.40;6.43;;;17.70;99.90;;;18.09;81.68;101496.59;5097421;28;20160;-66
2022/07/01 06:49:03;;;;;;;17.27;7.25;;;17.70;99.90;;;18.13;81.91;101496.50;5115583;28;20039;-66
2022/07/01 06:51:32;;;;;;;20.77;7.75;;;17.70;99.90;;;18.14;82.32;101514.31;5115517;28;20092;-66
2022/07/01 06:54:00;;;;;;;16.48;6.70;;;17.70;99.90;;;18.08;82.23;101490.34;5115430;28;20564;-64
2022/07/01 06:56:28;;;;;;;18.50;7.72;;;17.70;99.90;;;18.04;82.01;101492.22;5115347;28;20035;-65
2022/07/01 06:58:58;;;;;;;18.75;6.75;;;17.70;99.90;;;18.04;81.81;101494.03;5115607;28;20134;-66
2022/07/01 07:01:27;;;;;;;17.90;6.38;;;17.60;99.90;;;17.92;81.99;101471.13;5115267;28;20489;-65
2022/07/01 07:03:56;;;;;;;11.70;5.93;;;17.60;99.90;;;18.00;82.31;101479.84;5115570;28;20127;-63
2022/07/01 07:06:24;;;;;;;12.63;6.07;;;17.60;99.90;;;18.01;82.09;101502.16;5115104;28;20145;-64
2022/07/01 07:08:52;;;;;;;15.75;5.93;;;17.60;99.90;;;18.02;81.77;101503.94;5115136;28;20114;-65
2022/07/01 07:11:21;;;;;;;19.33;5.63;;;17.60;99.90;;;18.02;81.46;101510.13;5096969;28;20134;-65
2022/07/01 07:13:49;;;;;;;16.55;6.07;;;17.60;99.90;;;18.21;81.72;101504.31;5115286;28;20039;-64
2022/07/01 07:16:20;;;;;;;14.40;5.57;;;17.70;99.90;;;18.02;80.96;101471.78;5115183;28;20141;-65
2022/07/01 07:18:50;;;;;;;15.95;5.40;;;17.90;99.90;;;17.56;80.95;101396.22;5115616;28;20081;-66
2022/07/01 07:21:18;;;;;;;12.65;5.10;;;17.80;99.90;;;18.29;80.29;101508.56;5114861;28;20044;-65
2022/07/01 07:23:47;;;;;;;12.43;5.03;;;17.90;99.90;;;18.25;79.49;101490.84;5114887;28;20035;-65
2022/07/01 07:26:15;;;;;;;13.30;4.88;;;17.90;99.90;;;18.18;79.67;101482.97;5115157;28;20083;-66
2022/07/01 07:28:44;;;;;;;15.50;5.63;;;17.90;99.90;;;18.40;80.50;101514.53;5114996;28;20127;-65
2022/07/01 07:31:12;;;;;;;18.67;6.80;;;18.00;99.90;;;18.38;80.08;101527.09;5114617;28;20043;-65
2022/07/01 07:33:43;;;;;;;15.88;6.07;;;18.00;99.90;;;18.26;80.14;101523.81;5114492;28;20063;-67
2022/07/01 07:36:11;;;;;;;18.45;4.38;;;17.90;99.90;;;18.21;78.62;101528.44;5115187;28;20040;-67
2022/07/01 07:38:40;;;;;;;12.50;4.97;;;17.80;99.90;;;18.14;79.12;101541.09;5114639;28;20128;-66
2022/07/01 07:41:09;;;;;;;14.73;5.32;;;17.80;99.90;;;18.06;80.93;101532.34;5114505;28;20074;-66
2022/07/01 07:43:37;;;;;;;14.75;5.43;;;17.70;99.90;;;18.01;81.70;101536.94;5114466;28;20044;-66
2022/07/01 07:46:06;;;;;;;12.93;5.38;;;17.60;99.90;;;17.95;82.71;101537.09;5114493;28;20122;-65
2022/07/01 07:48:34;;;;;;;11.07;4.80;;;17.50;99.90;;;17.90;83.07;101534.53;5114291;28;20036;-64
2022/07/01 07:51:04;;;;;;;14.07;5.43;;;17.50;99.90;;;17.89;83.41;101508.69;5114239;28;20047;-63
2022/07/01 07:53:33;;;;;;;8.63;4.47;;;17.60;99.90;;;17.98;82.78;101540.56;5095795;28;20489;-63
2022/07/01 07:56:01;;;;;;;9.82;4.90;;;17.60;99.90;;;18.06;83.00;101542.22;5114213;28;20040;-65
2022/07/01 07:58:30;;;;;;;12.25;5.22;;;17.60;99.90;;;18.02;82.60;101539.59;5114459;28;20050;-65
2022/07/01 08:00:58;;;;;;;10.30;4.65;;;17.60;99.90;;;17.77;82.30;101500.06;5114168;28;20071;-65
2022/07/01 08:03:30;;;;;;;5.55;4.03;;;17.60;99.90;;;18.01;82.11;101535.16;5095858;28;20569;-67
2022/07/01 08:05:59;;;;;;;7.93;4.88;;;17.60;99.90;;;17.99;81.82;101536.09;5096088;28;20044;-66
2022/07/01 08:08:29;;;;;;;12.25;4.97;;;17.60;99.90;;;18.05;82.19;101535.97;5114112;28;20081;-66
2022/07/01 08:10:57;;;;;;;10.47;4.43;;;17.60;99.90;;;18.02;82.35;101536.06;5113752;28;20052;-66
2022/07/01 08:13:26;;;;;;;9.82;4.47;;;17.50;99.90;;;17.94;81.90;101540.72;5113677;28;20040;-66
2022/07/01 08:15:54;;;;;;;11.50;4.07;;;17.50;99.90;;;17.78;82.13;101515.22;5114261;28;20118;-67
2022/07/01 08:18:23;;;;;;;18.73;5.30;;;17.50;99.90;;;17.87;82.21;101531.03;5113664;28;20119;-67
2022/07/01 08:20:52;;;;;;;8.13;4.85;;;17.50;99.90;;;17.97;82.32;101538.81;5113728;28;20469;-67
2022/07/01 08:23:21;;;;;;;15.93;5.10;;;17.50;99.90;;;17.88;82.05;101531.03;5113609;28;20500;-67
2022/07/01 08:25:52;;;;;;;11.18;4.80;;;17.60;99.90;;;18.05;81.60;101552.03;5113653;28;20059;-67
2022/07/01 08:28:21;;;;;;;10.05;4.28;;;17.60;99.90;;;18.05;80.88;101554.72;5113715;28;20051;-67
2022/07/01 08:30:49;;;;;;;9.52;4.47;;;17.60;99.90;;;17.87;80.73;101520.34;5113898;28;20222;-67
2022/07/01 08:33:17;;;;;;;10.23;4.47;;;17.60;99.90;;;18.15;81.03;101564.28;5113517;28;20255;-66
2022/07/01 08:35:46;;;;;;;11.18;5.05;;;17.70;99.90;;;18.23;81.25;101561.41;5113725;28;20126;-66
2022/07/01 08:38:15;;;;;;;11.90;5.00;;;17.80;99.90;;;18.21;81.54;101557.91;5113589;28;20035;-66
2022/07/01 08:40:52;;;;;;;12.85;5.47;;;17.80;99.90;;;18.14;81.16;101567.00;5095478;28;20054;-66
2022/07/01 08:43:22;;;;;;;10.85;4.78;;;17.90;99.90;;;18.22;80.67;101568.56;5095345;28;20051;-65
2022/07/01 08:45:52;;;;;;;12.82;4.80;;;17.80;99.90;;;18.27;80.15;101569.34;5113596;28;20452;-66
2022/07/01 08:48:21;;;;;;;12.02;4.80;;;17.90;99.90;;;18.27;80.19;101580.06;5113296;28;20123;-65
2022/07/01 08:50:50;;;;;;;11.60;5.00;;;17.90;99.90;;;18.38;80.22;101583.34;5112229;28;20048;-66
2022/07/01 08:53:18;;;;;;;11.48;4.95;;;18.00;99.90;;;18.50;79.85;101583.09;5113130;28;20378;-67
2022/07/01 08:58:36;;;;;;;8.88;4.55;;;18.10;99.90;;;18.71;79.10;101590.56;5113306;28;20460;-67
2022/07/01 09:01:17;;;;;;;8.50;4.53;;;18.30;99.90;;;18.64;76.68;101602.34;5113359;28;20040;-67
2022/07/01 09:03:46;;;;;;;4.70;3.65;;;18.20;99.90;;;18.69;76.42;101599.56;5113540;28;20105;-67
2022/07/01 09:06:17;;;;;;;6.82;3.67;;;18.30;99.90;;;18.08;75.65;101476.97;5116566;28;20048;-67
2022/07/01 09:08:47;;;;;;;5.93;3.45;;;18.40;99.90;;;18.79;74.88;101598.41;5117408;28;20396;-67
2022/07/01 09:11:17;;;;;;;10.88;4.22;;;18.30;99.90;;;18.78;74.99;101594.81;5117409;28;20063;-66
2022/07/01 09:14:06;;;;;;;7.18;4.57;;;18.40;99.90;;;18.86;75.47;101582.09;5099052;28;20385;-66
2022/07/01 09:16:42;;;;;;;10.40;6.45;;;18.60;99.90;;;19.18;75.13;101609.84;5117570;28;20378;-66
2022/07/01 09:19:13;;;;;;;7.80;4.20;;;18.70;99.90;;;19.08;74.23;101558.25;5099120;28;20079;-66
2022/07/01 09:21:41;;;;;;;7.35;4.05;;;18.90;99.90;;;19.47;72.89;101605.41;5117469;28;20040;-66
2022/07/01 09:24:27;;;;;;;7.60;4.00;;;19.10;99.90;;;18.37;74.33;101351.19;5116978;28;20520;-66
2022/07/01 09:27:01;;;;;;;10.93;4.25;;;19.40;99.90;;;20.03;73.66;101601.03;5098327;28;20053;-66
2022/07/01 09:29:33;;;;;;;9.80;3.78;;;19.60;99.90;;;20.02;72.60;101584.94;5117085;28;20097;-67
2022/07/01 09:32:07;;;;;;;8.38;4.20;;;19.80;99.90;;;20.08;72.63;101612.50;5117087;28;20061;-67
2022/07/01 09:34:41;;;;;;;7.22;4.00;;;19.80;99.90;;;19.55;71.72;101610.59;5117537;28;20040;-67
2022/07/01 09:37:13;;;;;;;8.32;4.35;;;19.30;99.90;;;19.24;73.45;101594.44;5117136;28;20036;-64
2022/07/01 09:39:46;;;;;;;9.80;4.38;;;19.00;99.90;;;18.89;74.65;101607.97;5117087;28;20473;-64
2022/07/01 09:42:17;;;;;;;11.15;4.80;;;18.60;99.90;;;18.86;73.82;101606.22;5117174;28;20040;-64
2022/07/01 09:44:58;;;;;;;7.80;4.22;;;18.50;99.90;;;19.02;73.99;101616.53;5117426;28;20093;-68
2022/07/01 09:47:33;;;;;;;9.55;3.97;;;18.60;99.90;;;18.91;74.74;101616.84;5116834;28;20047;-67
2022/07/01 09:50:03;;;;;;;11.50;4.22;;;18.60;99.90;;;18.87;74.24;101602.63;5117006;28;20043;-66
2022/07/01 09:52:32;;;;;;;11.00;4.38;;;18.60;99.90;;;19.11;74.75;101611.81;5116906;28;20039;-67
2022/07/01 09:55:06;;;;;;;8.52;4.60;;;18.70;99.90;;;19.22;74.59;101573.97;5117294;28;20050;-66
2022/07/01 09:57:34;;;;;;;9.27;4.65;;;19.10;99.90;;;19.63;73.71;101579.88;5116637;28;20051;-68
2022/07/01 10:00:06;;;;;;;9.68;4.32;;;19.50;99.90;;;20.08;72.17;101604.44;5116836;28;20036;-66
2022/07/01 10:02:36;;;;;;;11.70;4.30;;;19.70;99.90;;;20.18;72.23;101634.59;5116561;28;20445;-68
2022/07/01 10:05:10;;;;;;;14.23;4.25;;;19.90;99.90;;;20.16;68.76;101614.94;5116526;28;20055;-66
2022/07/01 10:07:54;;;;;;;8.57;3.90;;;19.90;99.90;;;20.11;66.05;101590.91;5116726;28;20060;-65
2022/07/01 10:10:43;;;;;;;11.68;4.40;;;20.00;99.90;;;20.43;66.20;101614.09;5116705;28;20046;-64
2022/07/01 10:13:15;;;;;;;11.13;3.67;;;20.10;99.90;;;20.46;64.12;101616.69;5116765;28;20036;-65
2022/07/01 10:15:48;;;;;;;10.43;3.72;;;20.10;99.90;;;20.48;64.51;101601.38;5116155;28;20447;-66
2022/07/01 10:18:21;;;;;;;10.68;3.60;;;20.20;99.90;;;20.68;64.16;101609.66;5116142;28;20036;-66
2022/07/01 10:20:50;;;;;;;8.98;4.05;;;20.30;99.90;;;20.78;65.28;101615.59;5116139;28;20036;-66
2022/07/01 10:23:22;;;;;;;10.35;3.85;;;20.40;99.90;;;20.84;63.30;101629.72;5116389;28;20071;-64
2022/07/01 10:25:52;;;;;;;6.57;3.58;;;20.50;99.90;;;20.70;62.20;101640.06;5097734;28;20039;-68
2022/07/01 10:28:27;;;;;;;12.55;3.95;;;20.40;99.90;;;20.88;63.60;101627.78;5115679;28;20674;-67
2022/07/01 10:31:04;;;;;;;8.43;3.90;;;20.50;99.90;;;21.02;61.24;101645.22;5097756;28;20409;-68
2022/07/01 10:33:46;;;;;;;9.98;4.15;;;20.60;99.90;;;21.07;62.03;101642.38;5115579;28;20096;-68
2022/07/01 10:36:20;;;;;;;11.98;3.60;;;20.70;99.90;;;20.92;60.11;101642.91;5116039;28;20044;-68